Time;durP1;ratioP1;P1;durP2;ratioP2;P2;SDS_P1;SDS_P2;PMS_P1;PMS_P2;Temp;Humidity;BMP_temperature;BMP_pressure;BME280_temperature;BME280_humidity;BME280_pressure;Samples;Min_cycle;Max_cycle;Signal;HPM_P1;HPM_P2
2022/09/28 00:02:06;;;;;;;;;;;11.70;90.90;;;;;;5044994;28;19920;-69
2022/09/28 00:04:34;;;;;;;;;;;11.80;91.00;;;;;;5044884;28;19924;-69
2022/09/28 00:06:59;;;;;;;;;;;11.70;91.00;;;;;;5045224;28;19970;-70
2022/09/28 00:09:25;;;;;;;;;;;11.70;91.00;;;;;;5045480;28;19924;-70
2022/09/28 00:11:52;;;;;;;;;;;11.70;91.00;;;;;;5044978;28;19917;-69
2022/09/28 00:14:18;;;;;;;;;;;11.70;91.00;;;;;;5045197;28;19923;-70
2022/09/28 00:16:43;;;;;;;;;;;11.70;91.00;;;;;;5045100;28;20392;-69
2022/09/28 00:19:09;;;;;;;;;;;11.70;90.90;;;;;;5043955;28;19913;-70
2022/09/28 00:21:36;;;;;;;;;;;11.70;91.00;;;;;;5048685;28;19919;-69
2022/09/28 00:24:11;;;;;;;;;;;11.70;91.00;;;;;;5047023;28;19916;-70
2022/09/28 00:26:56;;;;;;;;;;;11.70;91.00;;;;;;5031547;28;19917;-70
2022/09/28 00:29:23;;;;;;;;;;;11.70;91.00;;;;;;5048589;28;19913;-70
2022/09/28 00:31:52;;;;;;;;;;;11.70;91.00;;;;;;5047361;28;19913;-70
2022/09/28 00:34:18;;;;;;;;;;;11.70;91.00;;;;;;5048292;28;20550;-70
2022/09/28 00:36:44;;;;;;;;;;;11.70;91.00;;;;;;5048941;28;19917;-70
2022/09/28 00:39:11;;;;;;;;;;;11.70;90.90;;;;;;5048843;28;19917;-70
2022/09/28 00:41:36;;;;;;;;;;;11.70;90.90;;;;;;5048887;28;19955;-70
2022/09/28 00:44:20;;;;;;;;;;;11.70;91.00;;;;;;5048433;28;20570;-70
2022/09/28 00:46:45;;;;;;;;;;;11.70;91.00;;;;;;5048621;28;20613;-70
2022/09/28 00:49:14;;;;;;;;;;;11.70;91.00;;;;;;5048481;28;19920;-70
2022/09/28 00:51:40;;;;;;;;;;;11.60;90.80;;;;;;5048115;28;20530;-69
2022/09/28 00:54:06;;;;;;;;;;;11.60;90.90;;;;;;5030394;28;19917;-70
2022/09/28 00:56:34;;;;;;;;;;;11.60;91.00;;;;;;5048370;28;19920;-69
2022/09/28 00:59:00;;;;;;;;;;;11.60;90.90;;;;;;5048573;28;19909;-70
2022/09/28 01:01:26;;;;;;;;;;;11.60;91.00;;;;;;5048218;28;19913;-70
2022/09/28 01:03:52;;;;;;;;;;;11.60;91.00;;;;;;5050035;28;19920;-70
2022/09/28 01:06:21;;;;;;;;;;;11.60;91.00;;;;;;5048357;28;19913;-70
2022/09/28 01:08:49;;;;;;;;;;;11.60;91.00;;;;;;5048326;28;19913;-70
2022/09/28 01:11:15;;;;;;;;;;;11.60;91.00;;;;;;5047854;28;20358;-70
2022/09/28 01:13:41;;;;;;;;;;;11.60;91.00;;;;;;5047717;28;19917;-70
2022/09/28 01:16:25;;;;;;;;;;;11.50;91.00;;;;;;5047613;28;19917;-69
2022/09/28 01:19:05;;;;;;;;;;;11.50;91.00;;;;;;5047849;28;20007;-69
2022/09/28 01:21:37;;;;;;;;;;;11.60;91.00;;;;;;5044099;28;19920;-69
2022/09/28 01:24:32;;;;;;;;;;;11.60;91.00;;;;;;5046366;28;20385;-69
2022/09/28 01:27:05;;;;;;;;;;;11.60;91.00;;;;;;5047616;28;19924;-69
2022/09/28 01:29:34;;;;;;;;;;;11.50;91.00;;;;;;5047700;28;19920;-70
2022/09/28 01:32:06;;;;;;;;;;;11.50;91.00;;;;;;5046263;28;19912;-69
2022/09/28 01:34:37;;;;;;;;;;;11.50;91.00;;;;;;5042779;28;19963;-69
2022/09/28 01:37:06;;;;;;;;;;;11.50;91.00;;;;;;5047213;28;19919;-69
2022/09/28 01:39:43;;;;;;;;;;;11.50;91.00;;;;;;5047677;28;20483;-69
2022/09/28 01:42:11;;;;;;;;;;;11.50;91.00;;;;;;5047459;28;19947;-69
2022/09/28 01:44:38;;;;;;;;;;;11.50;91.00;;;;;;5047237;28;19927;-69
2022/09/28 01:47:07;;;;;;;;;;;11.50;91.00;;;;;;5047251;28;19919;-69
2022/09/28 01:49:38;;;;;;;;;;;11.50;91.00;;;;;;5047550;28;20022;-69
2022/09/28 01:52:23;;;;;;;;;;;11.50;91.00;;;;;;5047397;28;19920;-69
2022/09/28 01:54:54;;;;;;;;;;;11.50;91.00;;;;;;5047127;28;20251;-69
2022/09/28 01:57:23;;;;;;;;;;;11.50;91.00;;;;;;5047578;28;19920;-69
2022/09/28 01:59:53;;;;;;;;;;;11.50;91.00;;;;;;5046961;28;19912;-69
2022/09/28 02:02:22;;;;;;;;;;;11.50;91.00;;;;;;5029016;28;19919;-69
2022/09/28 02:04:50;;;;;;;;;;;11.50;91.00;;;;;;5046564;28;19947;-69
2022/09/28 02:07:22;;;;;;;;;;;11.50;91.00;;;;;;5047300;28;20598;-69
2022/09/28 02:09:54;;;;;;;;;;;11.50;91.00;;;;;;5047102;28;20379;-69
2022/09/28 02:12:23;;;;;;;;;;;11.50;91.00;;;;;;5046653;28;19913;-69
2022/09/28 02:14:53;;;;;;;;;;;11.50;91.00;;;;;;5046500;28;19955;-69
2022/09/28 02:17:19;;;;;;;;;;;11.50;91.00;;;;;;5046971;28;20003;-69
2022/09/28 02:19:44;;;;;;;;;;;11.50;91.00;;;;;;5046850;28;20055;-69
2022/09/28 02:22:22;;;;;;;;;;;11.50;91.00;;;;;;5028784;28;19916;-69
2022/09/28 02:24:48;;;;;;;;;;;11.50;91.00;;;;;;5042982;28;19927;-69
2022/09/28 02:27:15;;;;;;;;;;;11.50;91.30;;;;;;5045624;28;20348;-69
2022/09/28 02:29:41;;;;;;;;;;;11.50;91.00;;;;;;5028775;28;20577;-69
2022/09/28 02:32:06;;;;;;;;;;;11.40;91.00;;;;;;5046372;28;19912;-70
2022/09/28 02:34:32;;;;;;;;;;;11.50;91.00;;;;;;5046401;28;20022;-69
2022/09/28 02:36:58;;;;;;;;;;;11.50;91.00;;;;;;5046524;28;19956;-69
2022/09/28 02:39:25;;;;;;;;;;;11.50;91.00;;;;;;5040985;28;19917;-69
2022/09/28 02:41:51;;;;;;;;;;;11.40;90.90;;;;;;5046233;28;19917;-69
2022/09/28 02:44:37;;;;;;;;;;;11.40;90.90;;;;;;5045583;28;19921;-69
2022/09/28 02:47:02;;;;;;;;;;;11.40;91.00;;;;;;5042463;28;19924;-69
2022/09/28 02:49:43;;;;;;;;;;;11.40;91.00;;;;;;5046559;28;20376;-69
2022/09/28 02:52:24;;;;;;;;;;;11.40;90.90;;;;;;5044946;28;19920;-69
2022/09/28 02:55:08;;;;;;;;;;;11.40;90.90;;;;;;5046053;28;20320;-69
2022/09/28 02:57:45;;;;;;;;;;;11.40;91.00;;;;;;5046223;28;20643;-69
2022/09/28 03:00:13;;;;;;;;;;;11.40;91.00;;;;;;5046130;28;19963;-70
2022/09/28 03:02:39;;;;;;;;;;;11.40;90.90;;;;;;5045644;28;20015;-69
2022/09/28 03:05:23;;;;;;;;;;;11.40;91.00;;;;;;5045828;28;20007;-70
2022/09/28 03:07:54;;;;;;;;;;;11.40;91.00;;;;;;5047669;28;20362;-69
2022/09/28 03:10:22;;;;;;;;;;;11.40;91.00;;;;;;5046150;28;19913;-69
2022/09/28 03:12:49;;;;;;;;;;;11.40;90.90;;;;;;5045643;28;19966;-69
2022/09/28 03:15:28;;;;;;;;;;;11.40;91.00;;;;;;5045462;28;20019;-69
2022/09/28 03:17:54;;;;;;;;;;;11.40;91.00;;;;;;5045462;28;19916;-69
2022/09/28 03:20:20;;;;;;;;;;;11.40;91.00;;;;;;5045678;28;20678;-69
2022/09/28 03:22:45;;;;;;;;;;;11.40;90.90;;;;;;5045387;28;19913;-69
2022/09/28 03:25:11;;;;;;;;;;;11.40;91.00;;;;;;5045201;28;19921;-69
2022/09/28 03:27:37;;;;;;;;;;;11.30;90.90;;;;;;5045752;28;19917;-69
2022/09/28 03:30:03;;;;;;;;;;;11.30;91.00;;;;;;5045330;28;19940;-69
2022/09/28 03:32:28;;;;;;;;;;;11.40;91.00;;;;;;5045305;28;19932;-70
2022/09/28 03:34:54;;;;;;;;;;;11.40;91.00;;;;;;5045616;28;20313;-69
2022/09/28 03:37:20;;;;;;;;;;;11.40;91.20;;;;;;5045307;28;20386;-69
2022/09/28 03:39:45;;;;;;;;;;;11.30;90.90;;;;;;5045249;28;19982;-69
2022/09/28 03:42:11;;;;;;;;;;;11.40;90.90;;;;;;5044994;28;19917;-69
2022/09/28 03:44:36;;;;;;;;;;;11.30;90.90;;;;;;5045173;28;19917;-69
2022/09/28 03:47:02;;;;;;;;;;;11.30;90.90;;;;;;5045357;28;19920;-70
2022/09/28 03:49:27;;;;;;;;;;;11.30;90.90;;;;;;5045494;28;19913;-69
2022/09/28 03:51:53;;;;;;;;;;;11.30;90.90;;;;;;5044904;28;19916;-69
2022/09/28 03:54:18;;;;;;;;;;;11.30;90.90;;;;;;5043299;28;19963;-69
2022/09/28 03:56:44;;;;;;;;;;;11.30;90.90;;;;;;5049298;28;20565;-69
2022/09/28 03:59:09;;;;;;;;;;;11.30;90.90;;;;;;5049470;28;19913;-69
2022/09/28 04:01:35;;;;;;;;;;;11.30;90.90;;;;;;5048950;28;20645;-69
2022/09/28 04:04:00;;;;;;;;;;;11.30;90.90;;;;;;5049440;28;19921;-69
2022/09/28 04:06:26;;;;;;;;;;;11.30;90.90;;;;;;5031742;28;19917;-69
2022/09/28 04:08:51;;;;;;;;;;;11.30;90.90;;;;;;5049567;28;20000;-68
2022/09/28 04:11:17;;;;;;;;;;;11.30;90.90;;;;;;5048786;28;20019;-69
2022/09/28 04:13:42;;;;;;;;;;;11.30;90.90;;;;;;5049119;28;20544;-69
2022/09/28 04:16:09;;;;;;;;;;;11.30;90.90;;;;;;5048981;28;19999;-69
2022/09/28 04:18:34;;;;;;;;;;;11.30;90.90;;;;;;5049148;28;20011;-69
2022/09/28 04:21:07;;;;;;;;;;;11.30;90.90;;;;;;5049051;28;20009;-69
2022/09/28 04:23:37;;;;;;;;;;;11.30;90.90;;;;;;5030536;28;19916;-69
2022/09/28 04:26:03;;;;;;;;;;;11.30;90.90;;;;;;5043653;28;19912;-69
2022/09/28 04:31:17;;;;;;;;;;;11.30;90.90;;;;;;5048712;28;20505;-69
2022/09/28 04:33:43;;;;;;;;;;;11.30;90.90;;;;;;5043106;28;19916;-69
2022/09/28 04:36:09;;;;;;;;;;;11.30;90.90;;;;;;5048168;28;20250;-69
2022/09/28 04:38:35;;;;;;;;;;;11.30;90.90;;;;;;5048946;28;19917;-69
2022/09/28 04:41:01;;;;;;;;;;;11.30;90.90;;;;;;5045030;28;19927;-69
2022/09/28 04:43:27;;;;;;;;;;;11.30;90.90;;;;;;5048150;28;20434;-69
2022/09/28 04:45:57;;;;;;;;;;;11.30;90.90;;;;;;5047941;28;20448;-69
2022/09/28 04:48:22;;;;;;;;;;;11.30;90.90;;;;;;5031902;28;19920;-69
2022/09/28 04:50:54;;;;;;;;;;;11.30;90.90;;;;;;5047850;28;19916;-69
2022/09/28 04:53:20;;;;;;;;;;;11.30;90.90;;;;;;5048284;28;20346;-69
2022/09/28 04:55:53;;;;;;;;;;;11.30;90.90;;;;;;5046292;28;19912;-69
2022/09/28 04:58:19;;;;;;;;;;;11.30;91.00;;;;;;5048300;28;20358;-69
2022/09/28 05:00:44;;;;;;;;;;;11.30;90.90;;;;;;5047945;28;19917;-69
2022/09/28 05:03:10;;;;;;;;;;;11.20;90.90;;;;;;5048048;28;20040;-69
2022/09/28 05:05:35;;;;;;;;;;;11.20;90.90;;;;;;5047817;28;19924;-69
2022/09/28 05:08:01;;;;;;;;;;;11.20;90.90;;;;;;5048041;28;19920;-69
2022/09/28 05:10:26;;;;;;;;;;;11.20;90.90;;;;;;5050467;28;20482;-69
2022/09/28 05:12:52;;;;;;;;;;;11.20;90.90;;;;;;5047965;28;19912;-69
2022/09/28 05:15:17;;;;;;;;;;;11.20;90.90;;;;;;5048021;28;19955;-69
2022/09/28 05:17:43;;;;;;;;;;;11.20;90.90;;;;;;5048134;28;19909;-69
2022/09/28 05:20:08;;;;;;;;;;;11.20;90.90;;;;;;5048003;28;19962;-69
2022/09/28 05:22:34;;;;;;;;;;;11.20;90.90;;;;;;5047891;28;19978;-69
2022/09/28 05:25:01;;;;;;;;;;;11.20;90.90;;;;;;5042005;28;19917;-69
2022/09/28 05:27:27;;;;;;;;;;;11.20;90.90;;;;;;5045787;28;19949;-69
2022/09/28 05:29:52;;;;;;;;;;;11.20;90.90;;;;;;5047567;28;20721;-69
2022/09/28 05:32:18;;;;;;;;;;;11.20;90.90;;;;;;5047212;28;20015;-69
2022/09/28 05:34:43;;;;;;;;;;;11.20;90.90;;;;;;5047662;28;20360;-69
2022/09/28 05:37:08;;;;;;;;;;;11.20;90.90;;;;;;5029589;28;19947;-69
2022/09/28 05:39:34;;;;;;;;;;;11.20;90.90;;;;;;5047642;28;20451;-69
2022/09/28 05:42:00;;;;;;;;;;;11.20;90.90;;;;;;5047101;28;19955;-69
2022/09/28 05:44:25;;;;;;;;;;;11.20;90.90;;;;;;5047455;28;19967;-69
2022/09/28 05:46:52;;;;;;;;;;;11.20;90.90;;;;;;5047462;28;19913;-69
2022/09/28 05:49:17;;;;;;;;;;;11.20;91.00;;;;;;5047382;28;19917;-69
2022/09/28 05:51:43;;;;;;;;;;;11.20;90.90;;;;;;5047217;28;19978;-69
2022/09/28 05:54:08;;;;;;;;;;;11.20;90.90;;;;;;5045171;28;19913;-69
2022/09/28 05:56:34;;;;;;;;;;;11.20;90.90;;;;;;5047801;28;20319;-69
2022/09/28 05:59:00;;;;;;;;;;;11.20;90.90;;;;;;5047241;28;19963;-69
2022/09/28 06:01:26;;;;;;;;;;;11.20;90.90;;;;;;5028786;28;20417;-69
2022/09/28 06:03:51;;;;;;;;;;;11.20;90.90;;;;;;5047082;28;19923;-69
2022/09/28 06:06:16;;;;;;;;;;;11.20;90.90;;;;;;5047026;28;19978;-69
2022/09/28 06:08:42;;;;;;;;;;;11.20;90.90;;;;;;5046882;28;19955;-69
2022/09/28 06:11:11;;;;;;;;;;;11.20;90.90;;;;;;5046680;28;19982;-69
2022/09/28 06:13:37;;;;;;;;;;;11.20;90.90;;;;;;5047168;28;19908;-69
2022/09/28 06:16:03;;;;;;;;;;;11.20;90.80;;;;;;5046962;28;19913;-69
2022/09/28 06:18:29;;;;;;;;;;;11.20;90.90;;;;;;5046282;28;19966;-69
2022/09/28 06:20:54;;;;;;;;;;;11.20;90.90;;;;;;5046215;28;19920;-69
2022/09/28 06:23:20;;;;;;;;;;;11.20;90.90;;;;;;5046839;28;19924;-69
2022/09/28 06:25:45;;;;;;;;;;;11.30;90.90;;;;;;5040960;28;20595;-69
2022/09/28 06:28:12;;;;;;;;;;;11.30;90.90;;;;;;5046693;28;19920;-69
2022/09/28 06:30:38;;;;;;;;;;;11.30;90.90;;;;;;5046123;28;19967;-69
2022/09/28 06:33:05;;;;;;;;;;;11.30;90.80;;;;;;5046240;28;19920;-69
2022/09/28 06:35:31;;;;;;;;;;;11.30;90.80;;;;;;5046454;28;19920;-69
2022/09/28 06:37:57;;;;;;;;;;;11.30;90.80;;;;;;5046370;28;19921;-69
2022/09/28 06:40:23;;;;;;;;;;;11.30;90.90;;;;;;5027423;28;19917;-69
2022/09/28 06:42:56;;;;;;;;;;;11.30;90.90;;;;;;5042816;28;19913;-69
2022/09/28 06:45:24;;;;;;;;;;;11.30;90.90;;;;;;5045928;28;19921;-69
2022/09/28 06:47:53;;;;;;;;;;;11.30;90.90;;;;;;5028370;28;19912;-69
2022/09/28 06:50:19;;;;;;;;;;;11.30;90.90;;;;;;5027644;28;19956;-69
2022/09/28 06:52:44;;;;;;;;;;;11.30;90.90;;;;;;5045832;28;19974;-69
2022/09/28 06:55:10;;;;;;;;;;;11.30;90.90;;;;;;5043589;28;20662;-69
2022/09/28 06:57:35;;;;;;;;;;;11.30;90.80;;;;;;5046097;28;19960;-69
2022/09/28 07:00:00;;;;;;;;;;;11.30;90.90;;;;;;5046084;28;20358;-69
2022/09/28 07:02:26;;;;;;;;;;;11.30;90.90;;;;;;5045710;28;20039;-69
2022/09/28 07:04:51;;;;;;;;;;;11.30;90.90;;;;;;5045977;28;20022;-69
2022/09/28 07:07:17;;;;;;;;;;;11.30;90.90;;;;;;5045614;28;19927;-69
2022/09/28 07:09:42;;;;;;;;;;;11.30;90.90;;;;;;5045887;28;20419;-69
2022/09/28 07:12:11;;;;;;;;;;;11.30;90.90;;;;;;5045470;28;19909;-69
2022/09/28 07:14:38;;;;;;;;;;;11.30;90.90;;;;;;5045817;28;19919;-69
2022/09/28 07:17:03;;;;;;;;;;;11.30;90.90;;;;;;5048372;28;19920;-69
2022/09/28 07:19:29;;;;;;;;;;;11.30;90.80;;;;;;5045799;28;19932;-69
2022/09/28 07:21:56;;;;;;;;;;;11.30;90.90;;;;;;5045610;28;19913;-69
2022/09/28 07:24:22;;;;;;;;;;;11.30;90.90;;;;;;5039797;28;19921;-69
2022/09/28 07:26:47;;;;;;;;;;;11.30;90.90;;;;;;5028789;28;20326;-69
2022/09/28 07:29:13;;;;;;;;;;;11.30;90.90;;;;;;5042633;28;19963;-69
2022/09/28 07:31:39;;;;;;;;;;;11.30;90.90;;;;;;5045262;28;19913;-69
2022/09/28 07:34:04;;;;;;;;;;;11.30;90.90;;;;;;5045682;28;19913;-69
2022/09/28 07:36:34;;;;;;;;;;;11.30;90.90;;;;;;5045313;28;19978;-69
2022/09/28 07:39:02;;;;;;;;;;;11.30;90.90;;;;;;5027385;28;19921;-69
2022/09/28 07:41:31;;;;;;;;;;;11.30;90.90;;;;;;5044979;28;19958;-69
2022/09/28 07:43:58;;;;;;;;;;;11.30;90.90;;;;;;5027406;28;19956;-69
2022/09/28 07:46:24;;;;;;;;;;;11.30;90.90;;;;;;5027214;28;20019;-69
2022/09/28 07:48:50;;;;;;;;;;;11.30;90.90;;;;;;5045502;28;20456;-69
2022/09/28 07:51:18;;;;;;;;;;;11.30;90.90;;;;;;5045307;28;19917;-69
2022/09/28 07:53:44;;;;;;;;;;;11.30;90.90;;;;;;5045304;28;20281;-69
2022/09/28 07:56:10;;;;;;;;;;;11.30;90.80;;;;;;5042417;28;19921;-69
2022/09/28 07:58:37;;;;;;;;;;;11.30;90.90;;;;;;5045439;28;20003;-69
2022/09/28 08:01:04;;;;;;;;;;;11.30;90.90;;;;;;5045080;28;19919;-69
2022/09/28 08:03:29;;;;;;;;;;;11.30;90.90;;;;;;5044995;28;19992;-69
2022/09/28 08:06:03;;;;;;;;;;;11.30;90.90;;;;;;5045213;28;20012;-69
2022/09/28 08:08:28;;;;;;;;;;;11.30;90.90;;;;;;5045006;28;20420;-69
2022/09/28 08:10:55;;;;;;;;;;;11.30;90.90;;;;;;5045316;28;19992;-69
2022/09/28 08:13:24;;;;;;;;;;;11.40;90.90;;;;;;5044949;28;19917;-69
2022/09/28 08:15:50;;;;;;;;;;;11.30;90.90;;;;;;5045222;28;19917;-69
2022/09/28 08:18:16;;;;;;;;;;;11.30;90.90;;;;;;5044991;28;19913;-69
2022/09/28 08:23:26;;;;;;;;;;;11.30;90.90;;;;;;5045172;28;19959;-69
2022/09/28 08:25:52;;;;;;;;;;;11.40;90.90;;;;;;5038484;28;19921;-69
2022/09/28 08:28:18;;;;;;;;;;;11.40;90.80;;;;;;5045119;28;20018;-69
2022/09/28 08:30:45;;;;;;;;;;;11.40;90.80;;;;;;5044873;28;19983;-69
2022/09/28 08:33:11;;;;;;;;;;;11.40;90.80;;;;;;5044838;28;20806;-69
2022/09/28 08:35:36;;;;;;;;;;;11.40;90.80;;;;;;5045073;28;19994;-69
2022/09/28 08:38:02;;;;;;;;;;;11.40;90.80;;;;;;5045129;28;19982;-69
2022/09/28 08:40:28;;;;;;;;;;;11.40;90.80;;;;;;5045149;28;19913;-69
2022/09/28 08:42:55;;;;;;;;;;;11.40;90.80;;;;;;5048339;28;20077;-69
2022/09/28 08:45:28;;;;;;;;;;;11.40;90.80;;;;;;5048592;28;20692;-69
2022/09/28 08:50:49;;;;;;;;;;;11.50;90.80;;;;;;5048754;28;19935;-69
2022/09/28 08:53:18;;;;;;;;;;;11.50;90.70;;;;;;5030252;28;19917;-69
2022/09/28 08:55:44;;;;;;;;;;;11.50;90.80;;;;;;5045461;28;19912;-69
2022/09/28 08:58:12;;;;;;;;;;;11.50;90.80;;;;;;5048495;28;19916;-69
2022/09/28 09:00:40;;;;;;;;;;;11.60;90.70;;;;;;5048050;28;20536;-69
2022/09/28 09:03:08;;;;;;;;;;;11.60;90.70;;;;;;5048554;28;20312;-69
2022/09/28 09:05:42;;;;;;;;;;;11.60;90.70;;;;;;5048026;28;19917;-69
2022/09/28 09:08:08;;;;;;;;;;;11.60;90.70;;;;;;5048572;28;20587;-69
2022/09/28 09:10:47;;;;;;;;;;;11.60;90.60;;;;;;5048105;28;19913;-69
2022/09/28 09:13:19;;;;;;;;;;;11.70;90.70;;;;;;5044092;28;19912;-69
2022/09/28 09:15:51;;;;;;;;;;;11.60;90.70;;;;;;5048225;28;20373;-69
2022/09/28 09:18:24;;;;;;;;;;;11.60;90.60;;;;;;5053439;28;20504;-69
2022/09/28 09:20:49;;;;;;;;;;;11.70;90.90;;;;;;5047978;28;19909;-69
2022/09/28 09:23:19;;;;;;;;;;;11.70;90.70;;;;;;5047688;28;20243;-69
2022/09/28 09:25:49;;;;;;;;;;;11.70;90.90;;;;;;5047651;28;19925;-69
2022/09/28 09:28:20;;;;;;;;;;;11.70;90.70;;;;;;5047964;28;20354;-69
2022/09/28 09:30:46;;;;;;;;;;;11.70;90.70;;;;;;5047801;28;19917;-69
2022/09/28 09:33:24;;;;;;;;;;;11.70;90.70;;;;;;5047580;28;20425;-69
2022/09/28 09:35:57;;;;;;;;;;;11.80;90.70;;;;;;5047651;28;19913;-69
2022/09/28 09:38:39;;;;;;;;;;;11.80;90.60;;;;;;5047503;28;20023;-69
2022/09/28 09:41:05;;;;;;;;;;;11.80;90.60;;;;;;5047538;28;19919;-69
2022/09/28 09:43:36;;;;;;;;;;;11.80;90.60;;;;;;5047412;28;20370;-69
2022/09/28 09:46:07;;;;;;;;;;;11.80;90.60;;;;;;5047436;28;20432;-69
2022/09/28 09:48:36;;;;;;;;;;;11.80;90.60;;;;;;5047437;28;19923;-69
2022/09/28 09:51:24;;;;;;;;;;;11.80;90.60;;;;;;5047277;28;20253;-69
2022/09/28 09:53:59;;;;;;;;;;;11.80;90.60;;;;;;5038086;28;19924;-69
2022/09/28 09:56:37;;;;;;;;;;;11.80;90.60;;;;;;5045154;28;19913;-69
2022/09/28 09:59:23;;;;;;;;;;;11.90;90.60;;;;;;5047119;28;19912;-69
2022/09/28 10:01:50;;;;;;;;;;;11.90;90.50;;;;;;5046937;28;19916;-69
2022/09/28 10:04:19;;;;;;;;;;;11.90;90.50;;;;;;5047127;28;20003;-69
2022/09/28 10:06:46;;;;;;;;;;;12.00;90.40;;;;;;5047089;28;20003;-69
2022/09/28 10:09:23;;;;;;;;;;;12.00;90.30;;;;;;5046983;28;19913;-69
2022/09/28 10:11:51;;;;;;;;;;;12.10;90.30;;;;;;5028659;28;19966;-69
2022/09/28 10:14:20;;;;;;;;;;;12.30;90.10;;;;;;5046830;28;19925;-69
2022/09/28 10:16:47;;;;;;;;;;;12.30;89.80;;;;;;5046719;28;19955;-69
2022/09/28 10:19:13;;;;;;;;;;;12.40;89.80;;;;;;5046856;28;20538;-69
2022/09/28 10:21:40;;;;;;;;;;;12.40;89.80;;;;;;5046961;28;19909;-70
2022/09/28 10:24:10;;;;;;;;;;;12.50;89.60;;;;;;5046706;28;19927;-69
2022/09/28 10:26:37;;;;;;;;;;;12.50;89.60;;;;;;5047010;28;19947;-69
2022/09/28 10:29:04;;;;;;;;;;;12.50;89.40;;;;;;5046647;28;20294;-69
2022/09/28 10:31:33;;;;;;;;;;;12.60;89.20;;;;;;5046536;28;19916;-69
2022/09/28 10:33:58;;;;;;;;;;;12.60;89.20;;;;;;5046528;28;19913;-69
2022/09/28 10:36:25;;;;;;;;;;;12.60;89.20;;;;;;5046567;28;19970;-69
2022/09/28 10:38:50;;;;;;;;;;;12.60;89.40;;;;;;5046954;28;19921;-68
2022/09/28 10:41:16;;;;;;;;;;;12.70;89.10;;;;;;5046627;28;19913;-69
2022/09/28 10:44:04;;;;;;;;;;;12.70;89.00;;;;;;5046399;28;20285;-69
2022/09/28 10:46:31;;;;;;;;;;;12.70;89.30;;;;;;5046521;28;19913;-69
2022/09/28 10:49:12;;;;;;;;;;;12.70;89.10;;;;;;5046280;28;19927;-69
2022/09/28 10:51:40;;;;;;;;;;;12.70;89.20;;;;;;5045962;28;19913;-70
2022/09/28 10:54:12;;;;;;;;;;;12.70;89.20;;;;;;5044119;28;19927;-70
2022/09/28 10:56:38;;;;;;;;;;;12.80;89.30;;;;;;5045917;28;19913;-70
2022/09/28 10:59:23;;;;;;;;;;;12.80;89.30;;;;;;5046420;28;19966;-69
2022/09/28 11:01:52;;;;;;;;;;;12.80;89.40;;;;;;5028104;28;19921;-69
2022/09/28 11:04:20;;;;;;;;;;;12.80;89.30;;;;;;5028095;28;19924;-70
2022/09/28 11:06:46;;;;;;;;;;;12.80;89.20;;;;;;5046458;28;20477;-69
2022/09/28 11:09:28;;;;;;;;;;;12.90;89.20;;;;;;5045948;28;19921;-69
2022/09/28 11:11:54;;;;;;;;;;;12.90;89.00;;;;;;5045561;28;20293;-69
2022/09/28 11:14:34;;;;;;;;;;;13.00;89.00;;;;;;5045943;28;19916;-69
2022/09/28 11:17:19;;;;;;;;;;;13.00;88.80;;;;;;5046063;28;20350;-69
2022/09/28 11:19:45;;;;;;;;;;;13.00;88.70;;;;;;5045794;28;20006;-70
2022/09/28 11:22:27;;;;;;;;;;;13.00;88.80;;;;;;5047687;28;20350;-69
2022/09/28 11:25:11;;;;;;;;;;;13.00;89.00;;;;;;5040768;28;19993;-69
2022/09/28 11:27:36;;;;;;;;;;;13.00;88.90;;;;;;5045846;28;19919;-70
2022/09/28 11:30:02;;;;;;;;;;;13.10;89.00;;;;;;5045317;28;20669;-70
2022/09/28 11:32:29;;;;;;;;;;;13.10;88.80;;;;;;5045100;28;19939;-69
2022/09/28 11:34:56;;;;;;;;;;;13.10;88.70;;;;;;5045738;28;19920;-70
2022/09/28 11:37:22;;;;;;;;;;;13.20;88.60;;;;;;5027543;28;20730;-70
2022/09/28 11:40:17;;;;;;;;;;;13.20;88.40;;;;;;5045937;28;19920;-70
2022/09/28 11:43:08;;;;;;;;;;;13.30;88.20;;;;;;5028813;28;20459;-69
2022/09/28 11:45:36;;;;;;;;;;;13.40;88.10;;;;;;5045648;28;19916;-69
2022/09/28 11:48:04;;;;;;;;;;;13.40;88.00;;;;;;5045584;28;20031;-69
2022/09/28 11:50:48;;;;;;;;;;;13.50;87.90;;;;;;5027101;28;20328;-69
2022/09/28 11:53:32;;;;;;;;;;;13.50;87.90;;;;;;5039682;28;19998;-69
2022/09/28 11:55:57;;;;;;;;;;;13.60;87.50;;;;;;5035715;28;19984;-69
2022/09/28 11:58:27;;;;;;;;;;;13.80;87.10;;;;;;5041263;28;19924;-69
2022/09/28 12:00:56;;;;;;;;;;;13.80;87.00;;;;;;5039041;28;20542;-69
2022/09/28 12:03:24;;;;;;;;;;;13.70;87.10;;;;;;5039098;28;19921;-69
2022/09/28 12:05:54;;;;;;;;;;;13.80;87.40;;;;;;5039410;28;19986;-69
2022/09/28 12:08:28;;;;;;;;;;;13.80;87.20;;;;;;5039846;28;19913;-69
2022/09/28 12:10:57;;;;;;;;;;;13.80;87.40;;;;;;5045072;28;19909;-69
2022/09/28 12:13:27;;;;;;;;;;;13.70;87.50;;;;;;5044889;28;19916;-69
2022/09/28 12:15:55;;;;;;;;;;;13.70;87.90;;;;;;5046232;28;19925;-69
2022/09/28 12:18:21;;;;;;;;;;;13.70;88.10;;;;;;5049659;28;20364;-69
2022/09/28 12:20:50;;;;;;;;;;;13.70;88.20;;;;;;5049209;28;19912;-69
2022/09/28 12:23:17;;;;;;;;;;;13.60;88.30;;;;;;5049044;28;19917;-69
2022/09/28 12:25:45;;;;;;;;;;;13.60;88.40;;;;;;5049311;28;19921;-69
2022/09/28 12:28:37;;;;;;;;;;;13.60;88.60;;;;;;5049161;28;20525;-70
2022/09/28 12:31:13;;;;;;;;;;;13.60;88.70;;;;;;5027954;28;19913;-69
2022/09/28 12:33:40;;;;;;;;;;;13.50;88.70;;;;;;5048596;28;19920;-69
2022/09/28 12:36:16;;;;;;;;;;;13.50;88.70;;;;;;5048678;28;19916;-70
2022/09/28 12:39:00;;;;;;;;;;;13.50;89.00;;;;;;5048933;28;19948;-70
2022/09/28 12:41:38;;;;;;;;;;;13.40;89.00;;;;;;5048612;28;19919;-70
2022/09/28 12:44:04;;;;;;;;;;;13.40;88.90;;;;;;5048619;28;19990;-70
2022/09/28 12:46:35;;;;;;;;;;;13.40;89.00;;;;;;5048883;28;19996;-70
2022/09/28 12:49:04;;;;;;;;;;;13.40;89.10;;;;;;5049002;28;19947;-70
2022/09/28 12:51:35;;;;;;;;;;;13.40;89.10;;;;;;5048013;28;20405;-70
2022/09/28 12:54:14;;;;;;;;;;;13.40;89.10;;;;;;5046251;28;19920;-70
2022/09/28 12:56:46;;;;;;;;;;;13.40;89.00;;;;;;5047324;28;19911;-70
2022/09/28 12:59:18;;;;;;;;;;;13.40;89.10;;;;;;5048503;28;19917;-70
2022/09/28 13:01:46;;;;;;;;;;;13.40;89.00;;;;;;5048146;28;20401;-70
2022/09/28 13:04:11;;;;;;;;;;;13.40;88.90;;;;;;5047945;28;20003;-70
2022/09/28 13:06:46;;;;;;;;;;;13.40;88.90;;;;;;5047421;28;20650;-69
2022/09/28 13:09:18;;;;;;;;;;;13.40;88.90;;;;;;5042246;28;19913;-70
2022/09/28 13:12:02;;;;;;;;;;;13.40;88.90;;;;;;5047551;28;19917;-70
2022/09/28 13:14:30;;;;;;;;;;;13.50;88.80;;;;;;5048086;28;19917;-70
2022/09/28 13:17:01;;;;;;;;;;;13.50;88.70;;;;;;5047723;28;19917;-70
2022/09/28 13:19:45;;;;;;;;;;;13.60;88.60;;;;;;5047950;28;19927;-69
2022/09/28 13:22:20;;;;;;;;;;;13.60;88.30;;;;;;5048485;28;19924;-70
2022/09/28 13:24:46;;;;;;;;;;;13.70;88.20;;;;;;5046281;28;20292;-70
2022/09/28 13:27:18;;;;;;;;;;;13.70;88.10;;;;;;5043812;28;19917;-70
2022/09/28 13:29:44;;;;;;;;;;;13.80;87.80;;;;;;5047709;28;19956;-70
2022/09/28 13:32:11;;;;;;;;;;;14.00;87.50;;;;;;5047682;28;19962;-70
2022/09/28 13:34:37;;;;;;;;;;;14.10;87.30;;;;;;5041796;28;19912;-69
2022/09/28 13:37:24;;;;;;;;;;;14.10;87.00;;;;;;5047577;28;19975;-69
2022/09/28 13:39:57;;;;;;;;;;;14.20;87.10;;;;;;5047572;28;19917;-69
2022/09/28 13:42:38;;;;;;;;;;;14.20;87.00;;;;;;5029348;28;20487;-69
2022/09/28 13:45:04;;;;;;;;;;;14.20;86.90;;;;;;5047486;28;19916;-70
2022/09/28 13:47:33;;;;;;;;;;;14.20;86.90;;;;;;5047127;28;19917;-70
2022/09/28 13:50:17;;;;;;;;;;;14.30;87.00;;;;;;5047428;28;19963;-70
2022/09/28 13:52:55;;;;;;;;;;;14.30;87.20;;;;;;5047356;28;19935;-69
2022/09/28 13:55:36;;;;;;;;;;;14.30;87.20;;;;;;5039803;28;20620;-69
2022/09/28 13:58:04;;;;;;;;;;;14.30;87.00;;;;;;5047366;28;19921;-70
2022/09/28 14:00:49;;;;;;;;;;;14.40;86.90;;;;;;5047089;28;19917;-69
2022/09/28 14:03:26;;;;;;;;;;;14.40;86.80;;;;;;5047328;28;19992;-69
2022/09/28 14:06:11;;;;;;;;;;;14.50;86.70;;;;;;5041401;28;19925;-69
2022/09/28 14:08:43;;;;;;;;;;;14.60;86.50;;;;;;5047421;28;20776;-69
2022/09/28 14:11:27;;;;;;;;;;;14.60;86.50;;;;;;5029236;28;20440;-69
2022/09/28 14:13:57;;;;;;;;;;;14.70;86.70;;;;;;5046705;28;19913;-69
2022/09/28 14:16:23;;;;;;;;;;;14.80;86.20;;;;;;5046963;28;19916;-69
2022/09/28 14:19:25;;;;;;;;;;;14.80;85.90;;;;;;5046809;28;19913;-69
2022/09/28 14:21:53;;;;;;;;;;;14.80;85.80;;;;;;4965167;28;19926;-69
2022/09/28 14:24:29;;;;;;;;;;;14.80;86.00;;;;;;5026058;28;19920;-70
2022/09/28 14:26:57;;;;;;;;;;;14.80;86.10;;;;;;5046938;28;20253;-70
2022/09/28 14:29:27;;;;;;;;;;;14.80;86.20;;;;;;5047077;28;19917;-70
2022/09/28 14:32:04;;;;;;;;;;;14.70;86.60;;;;;;5046288;28;20004;-69
2022/09/28 14:34:37;;;;;;;;;;;14.70;86.60;;;;;;5046699;28;19908;-70
2022/09/28 14:42:33;;;;;;;;;;;14.70;87.10;;;;;;5046715;28;20571;-69
2022/09/28 14:45:01;;;;;;;;;;;14.60;87.20;;;;;;5028595;28;19917;-70